Time;durP1;ratioP1;P1;durP2;ratioP2;P2;SDS_P1;SDS_P2;PMS_P1;PMS_P2;Temp;Humidity;BMP_temperature;BMP_pressure;BME280_temperature;BME280_humidity;BME280_pressure;Samples;Min_cycle;Max_cycle;Signal;HPM_P1;HPM_P2
2022/10/22 00:01:27;;;;;;;1.53;1.10;;;;;;;;;;5071659;28;20194;-50
2022/10/22 00:03:53;;;;;;;1.67;1.40;;;;;;;;;;5071402;28;20728;-50
2022/10/22 00:06:20;;;;;;;1.43;1.20;;;;;;;;;;5071677;28;20631;-51
2022/10/22 00:11:27;;;;;;;1.57;1.10;;;;;;;;;;5085782;22;20208;-48
2022/10/22 00:13:54;;;;;;;1.40;1.30;;;;;;;;;;5050424;28;20281;-49
2022/10/22 00:16:20;;;;;;;1.10;1.00;;;;;;;;;;5051330;28;20286;-53
2022/10/22 00:18:46;;;;;;;1.27;1.17;;;;;;;;;;5050488;28;20289;-51
2022/10/22 00:21:13;;;;;;;1.07;0.97;;;;;;;;;;5031631;28;20294;-49
2022/10/22 00:23:41;;;;;;;1.40;1.30;;;;;;;;;;5031105;28;20717;-49
2022/10/22 00:26:08;;;;;;;1.30;1.20;;;;;;;;;;5031391;28;20226;-51
2022/10/22 00:28:35;;;;;;;1.37;1.20;;;;;;;;;;5028397;28;20287;-53
2022/10/22 00:31:01;;;;;;;1.27;1.10;;;;;;;;;;5030747;28;20222;-49
2022/10/22 00:33:28;;;;;;;1.60;1.40;;;;;;;;;;5031210;28;20290;-53
2022/10/22 00:35:54;;;;;;;1.53;1.37;;;;;;;;;;5031144;28;20222;-52
2022/10/22 00:38:21;;;;;;;1.77;1.30;;;;;;;;;;5027040;28;20287;-51
2022/10/22 00:40:47;;;;;;;1.30;1.20;;;;;;;;;;5030651;28;20243;-49
2022/10/22 00:43:16;;;;;;;1.50;1.40;;;;;;;;;;5031124;28;20195;-49
2022/10/22 00:45:42;;;;;;;1.30;1.20;;;;;;;;;;5030800;28;20219;-49
2022/10/22 00:48:16;;;;;;;1.30;1.20;;;;;;;;;;5026477;28;20195;-53
2022/10/22 00:50:46;;;;;;;1.40;1.30;;;;;;;;;;5030152;28;20658;-49
2022/10/22 00:53:17;;;;;;;1.77;1.33;;;;;;;;;;5029645;28;20436;-52
2022/10/22 00:55:45;;;;;;;1.60;1.50;;;;;;;;;;5027698;28;20295;-49
2022/10/22 00:58:12;;;;;;;1.33;1.10;;;;;;;;;;5029348;28;20278;-51
2022/10/22 01:00:38;;;;;;;1.20;1.10;;;;;;;;;;5030375;28;20306;-50
2022/10/22 01:03:05;;;;;;;1.60;1.30;;;;;;;;;;5027548;28;20342;-49
2022/10/22 01:05:42;;;;;;;1.53;1.40;;;;;;;;;;5023945;28;20295;-54
2022/10/22 01:08:18;;;;;;;1.30;1.20;;;;;;;;;;5028662;28;20278;-51
2022/10/22 01:10:56;;;;;;;1.40;1.20;;;;;;;;;;5028545;28;20310;-49
2022/10/22 01:13:34;;;;;;;1.10;1.00;;;;;;;;;;5028897;28;20286;-52
2022/10/22 01:16:11;;;;;;;1.23;1.13;;;;;;;;;;5035771;28;20283;-49
2022/10/22 01:18:42;;;;;;;1.63;1.20;;;;;;;;;;5027243;28;20290;-52
2022/10/22 01:21:17;;;;;;;1.93;1.17;;;;;;;;;;5028319;28;20386;-52
2022/10/22 01:23:47;;;;;;;1.20;1.10;;;;;;;;;;5030446;28;20286;-51
2022/10/22 01:26:16;;;;;;;1.30;1.20;;;;;;;;;;5030419;28;20295;-51
2022/10/22 01:28:56;;;;;;;2.07;1.30;;;;;;;;;;5029039;28;20712;-52
2022/10/22 01:31:24;;;;;;;1.93;1.20;;;;;;;;;;5012630;28;20233;-54
2022/10/22 01:33:52;;;;;;;1.10;1.00;;;;;;;;;;5029135;28;20261;-56
2022/10/22 01:36:18;;;;;;;2.00;1.00;;;;;;;;;;5030283;28;20290;-50
2022/10/22 01:38:45;;;;;;;1.30;1.10;;;;;;;;;;5029131;28;20290;-50
2022/10/22 01:41:12;;;;;;;1.53;1.30;;;;;;;;;;5028805;28;20250;-50
2022/10/22 01:43:38;;;;;;;2.03;1.70;;;;;;;;;;5028626;28;20231;-52
2022/10/22 01:46:05;;;;;;;1.50;1.30;;;;;;;;;;5029850;28;20286;-54
2022/10/22 01:48:48;;;;;;;2.33;1.40;;;;;;;;;;5028187;28;20294;-53
2022/10/22 01:51:24;;;;;;;1.33;1.13;;;;;;;;;;5023353;28;20322;-51
2022/10/22 01:54:01;;;;;;;1.50;1.40;;;;;;;;;;5029797;28;20249;-52
2022/10/22 01:56:53;;;;;;;4.13;1.80;;;;;;;;;;5027036;28;20286;-53
2022/10/22 01:59:34;;;;;;;2.07;1.63;;;;;;;;;;5029888;28;20317;-52
2022/10/22 02:02:15;;;;;;;1.80;1.50;;;;;;;;;;5041655;28;20705;-51
2022/10/22 02:04:52;;;;;;;2.40;1.70;;;;;;;;;;5023834;28;20235;-53
2022/10/22 02:07:20;;;;;;;1.93;1.60;;;;;;;;;;5028766;28;20286;-52
2022/10/22 02:09:48;;;;;;;1.57;1.43;;;;;;;;;;5036668;28;20312;-49
2022/10/22 02:12:16;;;;;;;1.30;1.10;;;;;;;;;;5028449;28;20243;-50
2022/10/22 02:14:43;;;;;;;1.57;1.23;;;;;;;;;;5027846;28;20291;-49
2022/10/22 02:17:17;;;;;;;1.30;1.10;;;;;;;;;;5032354;28;20290;-53
2022/10/22 02:19:49;;;;;;;1.20;1.07;;;;;;;;;;5032057;28;20660;-53
2022/10/22 02:22:16;;;;;;;1.50;1.20;;;;;;;;;;5031872;28;20282;-50
2022/10/22 02:24:42;;;;;;;2.07;1.60;;;;;;;;;;5030925;28;20227;-50
2022/10/22 02:27:19;;;;;;;2.07;1.40;;;;;;;;;;5033604;28;20282;-50
2022/10/22 02:30:05;;;;;;;1.20;1.10;;;;;;;;;;5030405;28;20223;-49
2022/10/22 02:32:37;;;;;;;1.23;1.13;;;;;;;;;;5035979;28;20569;-50
2022/10/22 02:35:06;;;;;;;1.67;1.40;;;;;;;;;;5032111;28;20575;-52
2022/10/22 02:37:32;;;;;;;1.47;1.37;;;;;;;;;;5036751;28;20205;-52
2022/10/22 02:39:58;;;;;;;2.38;1.38;;;;;;;;;;5032919;28;20307;-52
2022/10/22 02:42:25;;;;;;;1.93;1.30;;;;;;;;;;5033209;28;20633;-51
2022/10/22 02:44:51;;;;;;;1.40;1.20;;;;;;;;;;5032016;28;20742;-51
2022/10/22 02:47:18;;;;;;;1.23;1.10;;;;;;;;;;5030673;28;20222;-49
2022/10/22 02:49:44;;;;;;;1.50;1.30;;;;;;;;;;5032650;28;20219;-49
2022/10/22 02:52:10;;;;;;;1.10;1.00;;;;;;;;;;5033091;28;20306;-49
2022/10/22 02:54:37;;;;;;;1.20;1.10;;;;;;;;;;5032352;28;20745;-53
2022/10/22 02:57:03;;;;;;;2.80;1.20;;;;;;;;;;5031993;28;20202;-53
2022/10/22 02:59:29;;;;;;;1.00;1.00;;;;;;;;;;5032857;28;20393;-52
2022/10/22 03:01:56;;;;;;;1.27;1.17;;;;;;;;;;5033289;28;20231;-49
2022/10/22 03:04:23;;;;;;;1.67;1.27;;;;;;;;;;5032647;28;20286;-49
2022/10/22 03:06:49;;;;;;;2.73;1.20;;;;;;;;;;5032789;28;20642;-49
2022/10/22 03:09:15;;;;;;;1.27;1.07;;;;;;;;;;5032340;28;20278;-52
2022/10/22 03:11:48;;;;;;;1.60;1.00;;;;;;;;;;5031322;28;20227;-52
2022/10/22 03:14:14;;;;;;;1.10;1.00;;;;;;;;;;5032808;28;20299;-52
2022/10/22 03:16:40;;;;;;;1.10;1.00;;;;;;;;;;5032646;28;20200;-50
2022/10/22 03:19:06;;;;;;;1.37;1.03;;;;;;;;;;5032342;28;20287;-49
2022/10/22 03:21:39;;;;;;;1.73;1.37;;;;;;;;;;5025190;28;20572;-49
2022/10/22 03:24:09;;;;;;;1.10;1.00;;;;;;;;;;5032493;28;20282;-49
2022/10/22 03:26:37;;;;;;;1.30;1.20;;;;;;;;;;5031705;28;20666;-49
2022/10/22 03:29:03;;;;;;;1.50;1.20;;;;;;;;;;5014103;28;20631;-50
2022/10/22 03:31:29;;;;;;;0.93;0.90;;;;;;;;;;5032282;28;20298;-49
2022/10/22 03:33:56;;;;;;;1.13;1.03;;;;;;;;;;5032333;28;20283;-49
2022/10/22 03:36:22;;;;;;;1.17;1.07;;;;;;;;;;5032220;28;20286;-51
2022/10/22 03:38:49;;;;;;;1.10;1.00;;;;;;;;;;5027636;28;20282;-49
2022/10/22 03:41:15;;;;;;;0.93;0.90;;;;;;;;;;5032183;28;20247;-53
2022/10/22 03:43:41;;;;;;;1.37;1.13;;;;;;;;;;5030914;28;20205;-50
2022/10/22 03:46:08;;;;;;;1.20;1.03;;;;;;;;;;5028884;28;20298;-49
2022/10/22 03:48:34;;;;;;;1.20;1.00;;;;;;;;;;5029407;28;20287;-50
2022/10/22 03:51:00;;;;;;;1.10;1.00;;;;;;;;;;5031779;28;20298;-49
2022/10/22 03:53:27;;;;;;;1.20;1.10;;;;;;;;;;5031841;28;20269;-52
2022/10/22 03:55:53;;;;;;;1.53;1.40;;;;;;;;;;5023727;28;20286;-51
2022/10/22 03:58:19;;;;;;;1.37;1.00;;;;;;;;;;5026025;28;20279;-49
2022/10/22 04:00:46;;;;;;;2.63;1.20;;;;;;;;;;5030262;28;20757;-49
2022/10/22 04:03:12;;;;;;;1.53;1.20;;;;;;;;;;5030979;28;20196;-49
2022/10/22 04:05:38;;;;;;;1.40;1.20;;;;;;;;;;5029535;28;20298;-52
2022/10/22 04:08:05;;;;;;;1.17;1.07;;;;;;;;;;5031687;28;20794;-52
2022/10/22 04:10:31;;;;;;;0.93;0.90;;;;;;;;;;5031170;28;20279;-49
2022/10/22 04:12:57;;;;;;;1.30;1.17;;;;;;;;;;5027031;28;20216;-52
2022/10/22 04:15:26;;;;;;;1.37;1.03;;;;;;;;;;5031588;28;20298;-52
2022/10/22 04:17:53;;;;;;;1.10;1.00;;;;;;;;;;5030379;28;20235;-52
2022/10/22 04:20:20;;;;;;;1.47;1.10;;;;;;;;;;5028363;28;20305;-51
2022/10/22 04:22:46;;;;;;;1.10;1.00;;;;;;;;;;5030784;28;20295;-49
2022/10/22 04:25:12;;;;;;;1.20;1.10;;;;;;;;;;5031545;28;20283;-49
2022/10/22 04:27:38;;;;;;;1.10;1.00;;;;;;;;;;5031340;28;20278;-48
2022/10/22 04:30:06;;;;;;;1.20;1.10;;;;;;;;;;5025306;28;20222;-49
2022/10/22 04:32:32;;;;;;;1.23;1.00;;;;;;;;;;5030961;28;20763;-49
2022/10/22 04:34:58;;;;;;;1.07;0.97;;;;;;;;;;5030979;28;20278;-49
2022/10/22 04:37:25;;;;;;;1.17;1.00;;;;;;;;;;5029915;28;20282;-49
2022/10/22 04:39:51;;;;;;;1.70;1.13;;;;;;;;;;5030571;28;20254;-49
2022/10/22 04:42:17;;;;;;;1.37;1.27;;;;;;;;;;5031132;28;20283;-49
2022/10/22 04:44:44;;;;;;;1.33;1.10;;;;;;;;;;5030982;28;20286;-49
2022/10/22 04:47:10;;;;;;;1.10;1.00;;;;;;;;;;5028560;28;20278;-54
2022/10/22 04:49:36;;;;;;;0.97;0.90;;;;;;;;;;5030549;28;20302;-54
2022/10/22 04:52:03;;;;;;;1.20;1.00;;;;;;;;;;5031274;28;20298;-53
2022/10/22 04:54:29;;;;;;;1.10;0.90;;;;;;;;;;5030191;28;20227;-50
2022/10/22 04:56:58;;;;;;;0.80;0.80;;;;;;;;;;5031234;28;20196;-49
2022/10/22 04:59:24;;;;;;;1.27;1.10;;;;;;;;;;5030503;28;20299;-48
2022/10/22 05:01:51;;;;;;;1.40;1.00;;;;;;;;;;5030482;28;20346;-52
2022/10/22 05:04:18;;;;;;;1.10;1.00;;;;;;;;;;5029673;28;20738;-54
2022/10/22 05:06:45;;;;;;;0.87;0.87;;;;;;;;;;5030643;28;20283;-49
2022/10/22 05:09:16;;;;;;;1.93;1.10;;;;;;;;;;5029221;28;20246;-52
2022/10/22 05:11:47;;;;;;;1.10;1.00;;;;;;;;;;5028678;28;20257;-49
2022/10/22 05:14:15;;;;;;;2.00;0.90;;;;;;;;;;5025232;28;20199;-49
2022/10/22 05:16:42;;;;;;;0.90;0.90;;;;;;;;;;5029189;28;20286;-51
2022/10/22 05:19:14;;;;;;;1.50;1.00;;;;;;;;;;5030241;28;20196;-50
2022/10/22 05:21:41;;;;;;;1.03;1.00;;;;;;;;;;5024802;28;20327;-50
2022/10/22 05:24:07;;;;;;;1.10;0.97;;;;;;;;;;5030357;28;20230;-49
2022/10/22 05:26:33;;;;;;;1.20;1.10;;;;;;;;;;5030195;28;20671;-52
2022/10/22 05:29:00;;;;;;;1.10;1.00;;;;;;;;;;5028651;28;20274;-50
2022/10/22 05:31:27;;;;;;;1.13;0.93;;;;;;;;;;5029346;28;20286;-49
2022/10/22 05:33:54;;;;;;;1.10;1.00;;;;;;;;;;5029308;28;20246;-50
2022/10/22 05:36:21;;;;;;;1.30;1.10;;;;;;;;;;5030207;28;20230;-50
2022/10/22 05:38:48;;;;;;;1.80;1.20;;;;;;;;;;5026447;28;20220;-49
2022/10/22 05:41:17;;;;;;;0.97;0.87;;;;;;;;;;5030028;28;20243;-49
2022/10/22 05:43:44;;;;;;;0.90;0.90;;;;;;;;;;5030170;28;20279;-49
2022/10/22 05:46:13;;;;;;;0.80;0.80;;;;;;;;;;5030200;28;20282;-54
2022/10/22 05:48:50;;;;;;;0.90;0.90;;;;;;;;;;5024267;28;20673;-52
2022/10/22 05:51:17;;;;;;;0.80;0.80;;;;;;;;;;5029701;28;20299;-50
2022/10/22 05:53:44;;;;;;;1.07;0.90;;;;;;;;;;5029721;28;20304;-52
2022/10/22 05:56:15;;;;;;;1.07;0.90;;;;;;;;;;5029261;28;20199;-50
2022/10/22 05:58:42;;;;;;;0.80;0.80;;;;;;;;;;5029782;28;20210;-50
2022/10/22 06:01:21;;;;;;;1.20;1.10;;;;;;;;;;5029785;28;20296;-52
2022/10/22 06:03:47;;;;;;;1.37;1.10;;;;;;;;;;5029385;28;20282;-53
2022/10/22 06:06:20;;;;;;;1.03;0.90;;;;;;;;;;5029324;28;20640;-49
2022/10/22 06:08:48;;;;;;;1.10;1.00;;;;;;;;;;5028087;28;20275;-50
2022/10/22 06:11:16;;;;;;;1.33;1.10;;;;;;;;;;5028512;28;20223;-49
2022/10/22 06:13:44;;;;;;;1.10;1.00;;;;;;;;;;5028792;28;20302;-50
2022/10/22 06:16:10;;;;;;;1.90;1.10;;;;;;;;;;5029687;28;20286;-49
2022/10/22 06:18:37;;;;;;;1.27;1.03;;;;;;;;;;5029350;28;20282;-49
2022/10/22 06:21:08;;;;;;;1.00;0.90;;;;;;;;;;5026329;28;20773;-52
2022/10/22 06:23:35;;;;;;;1.37;0.90;;;;;;;;;;5029704;28;20279;-49
2022/10/22 06:26:02;;;;;;;1.20;1.07;;;;;;;;;;5022897;28;20290;-51
2022/10/22 06:28:29;;;;;;;1.00;0.70;;;;;;;;;;5029020;28;20278;-51
2022/10/22 06:30:57;;;;;;;1.17;0.90;;;;;;;;;;5029013;28;20678;-53
2022/10/22 06:33:25;;;;;;;1.00;0.90;;;;;;;;;;5029523;28;20302;-51
2022/10/22 06:35:51;;;;;;;1.20;1.00;;;;;;;;;;5029411;28;20291;-49
2022/10/22 06:38:17;;;;;;;1.70;1.00;;;;;;;;;;5025224;28;20633;-49
2022/10/22 06:40:44;;;;;;;1.10;1.00;;;;;;;;;;5029364;28;20255;-52
2022/10/22 06:43:11;;;;;;;1.13;0.90;;;;;;;;;;5029809;28;20230;-53
2022/10/22 06:45:37;;;;;;;0.97;0.83;;;;;;;;;;5022565;28;20295;-50
2022/10/22 06:48:04;;;;;;;1.10;1.00;;;;;;;;;;5029402;28;20279;-49
2022/10/22 06:50:33;;;;;;;1.00;0.90;;;;;;;;;;5029196;28;20306;-54
2022/10/22 06:52:59;;;;;;;1.33;0.90;;;;;;;;;;5028968;28;20277;-53
2022/10/22 06:55:26;;;;;;;0.90;0.90;;;;;;;;;;5026048;28;20286;-49
2022/10/22 06:57:53;;;;;;;1.03;0.90;;;;;;;;;;5029292;28;20242;-49
2022/10/22 07:00:21;;;;;;;0.80;0.80;;;;;;;;;;5028866;28;20730;-49
2022/10/22 07:02:51;;;;;;;1.17;1.07;;;;;;;;;;5027046;28;20196;-51
2022/10/22 07:05:24;;;;;;;1.00;0.90;;;;;;;;;;5033085;28;20199;-50
2022/10/22 07:07:50;;;;;;;1.00;0.90;;;;;;;;;;5032822;28;20396;-49
2022/10/22 07:10:17;;;;;;;1.10;1.00;;;;;;;;;;5032760;28;20310;-49
2022/10/22 07:12:43;;;;;;;1.00;0.90;;;;;;;;;;5025688;28;20799;-53
2022/10/22 07:15:10;;;;;;;0.80;0.80;;;;;;;;;;5032524;28;20279;-50
2022/10/22 07:17:36;;;;;;;0.80;0.80;;;;;;;;;;5032448;28;20688;-49
2022/10/22 07:20:03;;;;;;;1.10;0.80;;;;;;;;;;5032430;28;20230;-49
2022/10/22 07:22:29;;;;;;;1.00;0.77;;;;;;;;;;5025171;28;20278;-53
2022/10/22 07:24:55;;;;;;;1.20;0.90;;;;;;;;;;5032503;28;20239;-53
2022/10/22 07:27:22;;;;;;;1.30;0.83;;;;;;;;;;5032468;28;20286;-49
2022/10/22 07:29:48;;;;;;;1.03;0.93;;;;;;;;;;5031270;28;20322;-52
2022/10/22 07:32:14;;;;;;;1.20;0.80;;;;;;;;;;5032544;28;20278;-49
2022/10/22 07:34:43;;;;;;;1.40;1.00;;;;;;;;;;5032350;28;20211;-50
2022/10/22 07:37:09;;;;;;;1.33;0.83;;;;;;;;;;5032385;28;20286;-50
2022/10/22 07:39:36;;;;;;;1.40;1.00;;;;;;;;;;5028846;28;20226;-49
2022/10/22 07:42:02;;;;;;;1.05;0.90;;;;;;;;;;5031111;28;20291;-53
2022/10/22 07:44:28;;;;;;;1.10;0.90;;;;;;;;;;5032038;28;20290;-52
2022/10/22 07:46:55;;;;;;;0.85;0.85;;;;;;;;;;5029811;28;20245;-49
2022/10/22 07:49:21;;;;;;;1.25;0.98;;;;;;;;;;5031833;28;20772;-52
2022/10/22 07:51:47;;;;;;;1.15;1.00;;;;;;;;;;5031995;28;20294;-49
2022/10/22 07:54:14;;;;;;;0.93;0.73;;;;;;;;;;5031263;28;20783;-54
2022/10/22 07:56:40;;;;;;;0.90;0.80;;;;;;;;;;5030023;28;20675;-53
2022/10/22 07:59:06;;;;;;;0.98;0.80;;;;;;;;;;5031467;28;20283;-54
2022/10/22 08:01:33;;;;;;;1.05;0.80;;;;;;;;;;5032084;28;20286;-52
2022/10/22 08:03:59;;;;;;;1.20;0.85;;;;;;;;;;5030932;28;20663;-50
2022/10/22 08:06:25;;;;;;;1.10;0.90;;;;;;;;;;5031936;28;20644;-51
2022/10/22 08:08:52;;;;;;;0.73;0.70;;;;;;;;;;5031374;28;20282;-50
2022/10/22 08:11:18;;;;;;;0.80;0.80;;;;;;;;;;5031537;28;20242;-51
2022/10/22 08:13:44;;;;;;;1.00;0.90;;;;;;;;;;5027782;28;20766;-52
2022/10/22 08:16:11;;;;;;;1.00;0.90;;;;;;;;;;5031803;28;20229;-55
2022/10/22 08:18:38;;;;;;;0.80;0.80;;;;;;;;;;5031448;28;20290;-52
2022/10/22 08:21:04;;;;;;;1.00;0.90;;;;;;;;;;5030594;28;20310;-50
2022/10/22 08:23:31;;;;;;;1.08;0.90;;;;;;;;;;5031523;28;20284;-50
2022/10/22 08:25:58;;;;;;;1.15;0.90;;;;;;;;;;5031441;28;20290;-51
2022/10/22 08:28:27;;;;;;;0.75;0.75;;;;;;;;;;5031353;28;20282;-51
2022/10/22 08:30:53;;;;;;;1.05;0.88;;;;;;;;;;5027962;28;20255;-50
2022/10/22 08:33:20;;;;;;;1.00;0.90;;;;;;;;;;5031659;28;20250;-52
2022/10/22 08:35:51;;;;;;;1.05;0.90;;;;;;;;;;5031314;28;20295;-49
2022/10/22 08:38:17;;;;;;;1.20;1.00;;;;;;;;;;5031346;28;20287;-52
2022/10/22 08:40:48;;;;;;;1.05;0.88;;;;;;;;;;5029978;28;20259;-53
2022/10/22 08:43:47;;;;;;;0.70;0.70;;;;;;;;;;5031329;28;20261;-52
2022/10/22 08:46:29;;;;;;;0.60;0.60;;;;;;;;;;5031098;28;20199;-51
2022/10/22 08:49:00;;;;;;;1.00;0.90;;;;;;;;;;5023692;28;20286;-50
2022/10/22 08:51:30;;;;;;;0.70;0.70;;;;;;;;;;5031352;28;20286;-49
2022/10/22 08:54:27;;;;;;;0.75;0.70;;;;;;;;;;5029004;28;20631;-53
2022/10/22 08:57:22;;;;;;;0.75;0.75;;;;;;;;;;5028068;28;20282;-49
2022/10/22 09:00:11;;;;;;;0.98;0.88;;;;;;;;;;5028467;28;20235;-53
2022/10/22 09:02:50;;;;;;;0.80;0.80;;;;;;;;;;5029408;28;20231;-52
2022/10/22 09:05:40;;;;;;;0.73;0.73;;;;;;;;;;5030724;28;20282;-50
2022/10/22 09:08:15;;;;;;;0.95;0.80;;;;;;;;;;5029062;28;20200;-53
2022/10/22 09:10:46;;;;;;;0.60;0.60;;;;;;;;;;5028792;28;20349;-51
2022/10/22 09:13:17;;;;;;;0.90;0.75;;;;;;;;;;5030455;28;20215;-53
2022/10/22 09:15:46;;;;;;;0.80;0.80;;;;;;;;;;5027958;28;20279;-51
2022/10/22 09:18:31;;;;;;;0.80;0.80;;;;;;;;;;5029084;28;20200;-52
2022/10/22 09:21:09;;;;;;;0.70;0.70;;;;;;;;;;5029696;28;20302;-50
2022/10/22 09:23:47;;;;;;;0.68;0.68;;;;;;;;;;5028397;28;20227;-52
2022/10/22 09:26:15;;;;;;;0.70;0.70;;;;;;;;;;5036502;28;20451;-54
2022/10/22 09:28:42;;;;;;;0.73;0.73;;;;;;;;;;5028231;28;20278;-50
2022/10/22 09:31:13;;;;;;;0.70;0.70;;;;;;;;;;5025671;28;20295;-53
2022/10/22 09:33:40;;;;;;;0.70;0.70;;;;;;;;;;5027995;28;20690;-53
2022/10/22 09:36:07;;;;;;;0.70;0.70;;;;;;;;;;5030166;28;20310;-52
2022/10/22 09:38:39;;;;;;;0.65;0.63;;;;;;;;;;5030269;28;20290;-51
2022/10/22 09:41:05;;;;;;;1.00;0.90;;;;;;;;;;5028103;28;20298;-52
2022/10/22 09:43:33;;;;;;;0.77;0.75;;;;;;;;;;5030347;28;20279;-52
2022/10/22 09:46:05;;;;;;;0.70;0.70;;;;;;;;;;5028883;28;20659;-52
2022/10/22 09:48:35;;;;;;;1.40;1.08;;;;;;;;;;5029356;28;20203;-50
2022/10/22 09:51:40;;;;;;;1.10;0.80;;;;;;;;;;5029631;28;20669;-52
2022/10/22 09:54:32;;;;;;;0.70;0.70;;;;;;;;;;5030210;28;20302;-50
2022/10/22 09:57:17;;;;;;;1.20;0.70;;;;;;;;;;5027802;28;20278;-52
2022/10/22 09:59:46;;;;;;;0.80;0.80;;;;;;;;;;5029345;28;20297;-50
2022/10/22 10:02:22;;;;;;;1.88;0.63;;;;;;;;;;5028578;28;20282;-53
2022/10/22 10:05:05;;;;;;;0.77;0.70;;;;;;;;;;5029276;28;20597;-50
2022/10/22 10:07:33;;;;;;;0.68;0.68;;;;;;;;;;5029690;28;20585;-50
2022/10/22 10:10:00;;;;;;;2.28;0.68;;;;;;;;;;5029306;28;20294;-50
2022/10/22 10:12:47;;;;;;;1.00;0.90;;;;;;;;;;5029716;28;20286;-53
2022/10/22 10:15:22;;;;;;;0.80;0.80;;;;;;;;;;5019367;28;20786;-51
2022/10/22 10:18:13;;;;;;;0.70;0.70;;;;;;;;;;5028359;28;20299;-54
2022/10/22 10:21:17;;;;;;;1.20;0.60;;;;;;;;;;5029335;28;20310;-50
2022/10/22 10:24:02;;;;;;;0.70;0.70;;;;;;;;;;5026252;28;20698;-50
2022/10/22 10:26:47;;;;;;;1.45;0.70;;;;;;;;;;5028561;28;20284;-54
2022/10/22 10:29:23;;;;;;;0.70;0.70;;;;;;;;;;5028198;28;20821;-52
2022/10/22 10:32:00;;;;;;;0.80;0.77;;;;;;;;;;5029643;28;20195;-50
2022/10/22 10:34:45;;;;;;;0.70;0.70;;;;;;;;;;5027526;28;20679;-51
2022/10/22 10:37:16;;;;;;;0.70;0.70;;;;;;;;;;5031780;28;20485;-50
2022/10/22 10:40:18;;;;;;;1.05;0.88;;;;;;;;;;5032882;28;20255;-49
2022/10/22 10:42:55;;;;;;;0.70;0.70;;;;;;;;;;5033303;28;20286;-51
2022/10/22 10:45:41;;;;;;;0.60;0.60;;;;;;;;;;5032151;28;20282;-52
2022/10/22 10:48:26;;;;;;;0.65;0.65;;;;;;;;;;5025171;28;20197;-54
2022/10/22 10:51:03;;;;;;;0.63;0.55;;;;;;;;;;5032614;28;20310;-52
2022/10/22 10:53:35;;;;;;;0.70;0.70;;;;;;;;;;5031735;28;20298;-50
2022/10/22 10:56:29;;;;;;;0.65;0.65;;;;;;;;;;5032983;28;20678;-52
2022/10/22 10:59:02;;;;;;;0.70;0.70;;;;;;;;;;5028341;28;20287;-52
2022/10/22 11:01:41;;;;;;;0.70;0.70;;;;;;;;;;5033154;28;20235;-52
2022/10/22 11:04:55;;;;;;;1.73;0.65;;;;;;;;;;5032479;28;20188;-54
2022/10/22 11:07:26;;;;;;;0.70;0.60;;;;;;;;;;5031805;28;20234;-52
2022/10/22 11:10:44;;;;;;;0.75;0.60;;;;;;;;;;5031521;28;20212;-52
2022/10/22 11:13:39;;;;;;;0.75;0.70;;;;;;;;;;5029809;28;20226;-53
2022/10/22 11:16:42;;;;;;;0.60;0.60;;;;;;;;;;5026577;28;20229;-50
2022/10/22 11:19:23;;;;;;;0.63;0.63;;;;;;;;;;5014828;28;20286;-52
2022/10/22 11:22:25;;;;;;;0.60;0.60;;;;;;;;;;5026635;28;20199;-50
2022/10/22 11:25:00;;;;;;;0.60;0.60;;;;;;;;;;5032497;28;20195;-51
2022/10/22 11:27:40;;;;;;;0.57;0.55;;;;;;;;;;5031298;28;20202;-50
2022/10/22 11:30:12;;;;;;;0.60;0.60;;;;;;;;;;5028519;28;20304;-53
2022/10/22 11:32:41;;;;;;;0.63;0.63;;;;;;;;;;5032611;28;20230;-50
2022/10/22 11:35:13;;;;;;;0.70;0.70;;;;;;;;;;5032335;28;20215;-50
2022/10/22 11:37:39;;;;;;;0.70;0.60;;;;;;;;;;5024085;28;20291;-50
2022/10/22 11:40:33;;;;;;;0.75;0.63;;;;;;;;;;5032101;28;20215;-51
2022/10/22 11:43:07;;;;;;;0.70;0.70;;;;;;;;;;5032153;28;20192;-52
2022/10/22 11:45:37;;;;;;;0.70;0.70;;;;;;;;;;5032145;28;20282;-51
2022/10/22 11:48:09;;;;;;;0.70;0.70;;;;;;;;;;5027334;28;20199;-50
2022/10/22 11:50:59;;;;;;;0.65;0.65;;;;;;;;;;5031926;28;20698;-51
2022/10/22 11:53:37;;;;;;;0.70;0.70;;;;;;;;;;5032300;28;20211;-51
2022/10/22 11:56:08;;;;;;;0.77;0.70;;;;;;;;;;5018579;28;20195;-52
2022/10/22 11:58:47;;;;;;;0.60;0.60;;;;;;;;;;5031866;28;20242;-50
2022/10/22 12:01:26;;;;;;;0.60;0.60;;;;;;;;;;5032037;28;20219;-50
2022/10/22 12:03:56;;;;;;;0.70;0.70;;;;;;;;;;5030477;28;20683;-50
2022/10/22 12:06:24;;;;;;;0.70;0.70;;;;;;;;;;5031372;28;20294;-54
2022/10/22 12:08:50;;;;;;;0.57;0.57;;;;;;;;;;5031476;28;20291;-50
2022/10/22 12:11:39;;;;;;;0.50;0.50;;;;;;;;;;5031509;28;20255;-54
2022/10/22 12:14:25;;;;;;;0.60;0.60;;;;;;;;;;5028980;28;20303;-49
2022/10/22 12:16:55;;;;;;;1.05;0.80;;;;;;;;;;5030810;28;20198;-48
2022/10/22 12:19:29;;;;;;;0.68;0.60;;;;;;;;;;5030144;28;20622;-52
2022/10/22 12:22:04;;;;;;;0.60;0.60;;;;;;;;;;5028633;28;20208;-51
2022/10/22 12:24:35;;;;;;;0.73;0.70;;;;;;;;;;5028517;28;20310;-49
2022/10/22 12:27:01;;;;;;;0.70;0.70;;;;;;;;;;5030490;28;20290;-52
2022/10/22 12:29:31;;;;;;;0.82;0.65;;;;;;;;;;5031229;28;20262;-53
2022/10/22 12:32:01;;;;;;;0.60;0.57;;;;;;;;;;5030088;28;20294;-52
2022/10/22 12:34:28;;;;;;;0.73;0.70;;;;;;;;;;5031395;28;20222;-52
2022/10/22 12:36:54;;;;;;;0.70;0.70;;;;;;;;;;5030561;28;20286;-50
2022/10/22 12:39:25;;;;;;;2.05;0.70;;;;;;;;;;5030926;28;20286;-50
2022/10/22 12:41:52;;;;;;;1.05;0.80;;;;;;;;;;5026364;28;20864;-51
2022/10/22 12:44:19;;;;;;;0.70;0.52;;;;;;;;;;5031108;28;20286;-50
2022/10/22 12:46:47;;;;;;;0.70;0.60;;;;;;;;;;5031650;28;20766;-52
2022/10/22 12:49:24;;;;;;;0.60;0.60;;;;;;;;;;5026860;28;20590;-54
2022/10/22 12:51:50;;;;;;;0.63;0.63;;;;;;;;;;5028780;28;20282;-50
2022/10/22 12:54:22;;;;;;;0.65;0.60;;;;;;;;;;5031882;28;20700;-52
2022/10/22 12:56:49;;;;;;;0.70;0.70;;;;;;;;;;5029574;28;20298;-53
2022/10/22 12:59:23;;;;;;;0.90;0.90;;;;;;;;;;5025102;28;20287;-51
2022/10/22 13:01:50;;;;;;;0.60;0.60;;;;;;;;;;5031047;28;20294;-52
2022/10/22 13:04:27;;;;;;;0.80;0.80;;;;;;;;;;5030143;28;20746;-52
2022/10/22 13:07:12;;;;;;;0.60;0.60;;;;;;;;;;5026369;28;20766;-54
2022/10/22 13:09:54;;;;;;;0.50;0.50;;;;;;;;;;5030124;28;20695;-52
2022/10/22 13:12:24;;;;;;;0.63;0.63;;;;;;;;;;5030765;28;20659;-53
2022/10/22 13:14:50;;;;;;;0.52;0.52;;;;;;;;;;5029352;28;20303;-53
2022/10/22 13:17:37;;;;;;;0.80;0.70;;;;;;;;;;5031085;28;20290;-53
2022/10/22 13:20:14;;;;;;;0.70;0.70;;;;;;;;;;5030701;28;20254;-52
2022/10/22 13:22:53;;;;;;;0.65;0.65;;;;;;;;;;5030285;28;20730;-52
2022/10/22 13:25:25;;;;;;;0.52;0.52;;;;;;;;;;5027101;28;20730;-52
2022/10/22 13:27:57;;;;;;;1.02;0.70;;;;;;;;;;5030270;28;20317;-50
2022/10/22 13:30:32;;;;;;;0.60;0.60;;;;;;;;;;5028928;28;20668;-50
2022/10/22 13:33:03;;;;;;;0.68;0.68;;;;;;;;;;5027286;28;20286;-53
2022/10/22 13:35:31;;;;;;;0.80;0.73;;;;;;;;;;5031068;28;20761;-53
2022/10/22 13:37:59;;;;;;;0.60;0.60;;;;;;;;;;5029013;28;20278;-53
2022/10/22 13:40:25;;;;;;;1.05;0.68;;;;;;;;;;5027370;28;20802;-51
2022/10/22 13:42:52;;;;;;;0.95;0.60;;;;;;;;;;5029695;28;20286;-53
2022/10/22 13:45:19;;;;;;;0.68;0.68;;;;;;;;;;5030324;28;20379;-53
2022/10/22 13:47:51;;;;;;;1.42;0.70;;;;;;;;;;5030989;28;20686;-49
2022/10/22 13:50:19;;;;;;;0.63;0.60;;;;;;;;;;5021880;28;20314;-52
2022/10/22 13:52:48;;;;;;;0.60;0.52;;;;;;;;;;5030162;28;20202;-51
2022/10/22 13:55:16;;;;;;;0.70;0.70;;;;;;;;;;5030140;28;20653;-49
2022/10/22 13:57:43;;;;;;;0.80;0.60;;;;;;;;;;5028640;28;20306;-49
2022/10/22 14:00:12;;;;;;;1.23;0.80;;;;;;;;;;5031962;28;20302;-52
2022/10/22 14:02:39;;;;;;;0.90;0.60;;;;;;;;;;5030224;28;20290;-51
2022/10/22 14:05:08;;;;;;;0.47;0.47;;;;;;;;;;5030261;28;20638;-53
2022/10/22 14:07:35;;;;;;;0.43;0.43;;;;;;;;;;5024825;28;20286;-53
2022/10/22 14:10:05;;;;;;;0.63;0.63;;;;;;;;;;5028215;28;20322;-49
2022/10/22 14:12:32;;;;;;;0.90;0.60;;;;;;;;;;5032620;28;20238;-52
2022/10/22 14:14:58;;;;;;;0.70;0.60;;;;;;;;;;5033901;28;20215;-50
2022/10/22 14:17:24;;;;;;;1.30;0.50;;;;;;;;;;5029839;28;20203;-53
2022/10/22 14:19:51;;;;;;;0.82;0.50;;;;;;;;;;5033887;28;20777;-52
2022/10/22 14:22:18;;;;;;;0.70;0.70;;;;;;;;;;5037916;28;20222;-54
2022/10/22 14:24:45;;;;;;;0.60;0.60;;;;;;;;;;5035592;28;20223;-55
2022/10/22 14:27:13;;;;;;;0.70;0.70;;;;;;;;;;5028851;28;20287;-52
2022/10/22 14:29:40;;;;;;;0.93;0.57;;;;;;;;;;5033216;28;20325;-51
2022/10/22 14:32:15;;;;;;;0.70;0.70;;;;;;;;;;5033660;28;20286;-50
2022/10/22 14:34:41;;;;;;;0.60;0.60;;;;;;;;;;5031868;28;20301;-50
2022/10/22 14:37:15;;;;;;;0.50;0.50;;;;;;;;;;5033342;28;20774;-51
2022/10/22 14:39:42;;;;;;;0.40;0.40;;;;;;;;;;5033743;28;20648;-53
2022/10/22 14:42:10;;;;;;;0.60;0.60;;;;;;;;;;5033258;28;20226;-52
2022/10/22 14:44:36;;;;;;;0.50;0.50;;;;;;;;;;5030598;28;20282;-50
2022/10/22 14:47:02;;;;;;;0.63;0.60;;;;;;;;;;5033391;28;20290;-51
2022/10/22 14:49:29;;;;;;;0.70;0.70;;;;;;;;;;5032837;28;20310;-50
2022/10/22 14:51:55;;;;;;;0.73;0.68;;;;;;;;;;5029094;28;20234;-52
2022/10/22 14:54:21;;;;;;;0.60;0.60;;;;;;;;;;5033272;28;20299;-54
2022/10/22 14:56:48;;;;;;;0.50;0.50;;;;;;;;;;5032780;28;20707;-50
2022/10/22 14:59:14;;;;;;;0.85;0.73;;;;;;;;;;5028725;28;20299;-50
2022/10/22 15:01:41;;;;;;;0.85;0.70;;;;;;;;;;5030527;28;20286;-49
2022/10/22 15:04:08;;;;;;;0.50;0.43;;;;;;;;;;5032844;28;20293;-49
2022/10/22 15:06:35;;;;;;;0.60;0.60;;;;;;;;;;5032871;28;20756;-49
2022/10/22 15:09:01;;;;;;;0.70;0.70;;;;;;;;;;5027972;28;20291;-47